createdAt,value
2019-05-18T00:02:26.900Z,65.63
2019-05-18T00:04:58.477Z,120.50
2019-05-18T00:07:28.873Z,138.47
2019-05-18T00:09:59.379Z,175.47
2019-05-18T00:12:29.767Z,91.03
2019-05-18T00:15:00.178Z,98.40
2019-05-18T00:17:31.677Z,94.97
2019-05-18T00:20:02.979Z,126.97
2019-05-18T00:22:33.709Z,119.93
2019-05-18T00:25:05.291Z,147.67
2019-05-18T00:27:35.714Z,113.90
2019-05-18T00:30:06.921Z,104.27
2019-05-18T00:32:37.755Z,90.83
2019-05-18T00:35:09.017Z,78.60
2019-05-18T00:37:40.153Z,60.40
2019-05-18T00:40:11.078Z,66.90
2019-05-18T00:42:41.480Z,86.87
2019-05-18T00:45:11.994Z,90.83
2019-05-18T00:47:42.584Z,67.77
2019-05-18T00:50:14.389Z,78.83
2019-05-18T00:52:44.922Z,85.53
2019-05-18T00:55:16.417Z,88.23
2019-05-18T00:57:47.037Z,90.80
2019-05-18T01:00:19.272Z,81.77
2019-05-18T01:02:49.681Z,83.83
2019-05-18T01:05:20.412Z,93.20
2019-05-18T01:07:51.224Z,97.07
2019-05-18T01:10:21.739Z,76.60
2019-05-18T01:12:52.243Z,85.33
2019-05-18T01:15:23.253Z,114.20
2019-05-18T01:17:57.219Z,101.37
2019-05-18T01:20:26.386Z,107.63
2019-05-18T01:22:57.059Z,124.93
2019-05-18T01:25:27.836Z,203.37
2019-05-18T01:27:58.618Z,177.70
2019-05-18T01:30:28.937Z,167.10
2019-05-18T01:32:59.368Z,201.30
2019-05-18T01:35:30.017Z,127.20
2019-05-18T01:38:00.440Z,111.97
2019-05-18T01:40:30.885Z,112.53
2019-05-18T01:43:01.803Z,102.63
2019-05-18T01:45:32.140Z,78.20
2019-05-18T01:48:13.129Z,114.10
2019-05-18T01:50:35.617Z,123.63
2019-05-18T01:53:06.090Z,126.53
2019-05-18T01:55:36.803Z,85.37
2019-05-18T01:58:07.218Z,64.33
2019-05-18T02:00:37.593Z,43.97
2019-05-18T02:03:08.250Z,38.97
2019-05-18T02:05:38.580Z,31.50
2019-05-18T02:08:08.942Z,31.13
2019-05-18T02:10:39.463Z,27.53
2019-05-18T02:13:09.889Z,25.53
2019-05-18T02:15:40.188Z,22.33
2019-05-18T02:18:10.711Z,22.23
2019-05-18T02:20:42.479Z,24.57
2019-05-18T02:23:12.783Z,26.07
2019-05-18T02:25:43.459Z,30.70
2019-05-18T02:28:13.971Z,27.30
2019-05-18T02:30:44.315Z,34.77
2019-05-18T02:33:14.752Z,28.73
2019-05-18T02:35:45.606Z,35.70
2019-05-18T02:38:19.387Z,32.70
2019-05-18T02:40:49.905Z,34.30
2019-05-18T02:43:20.630Z,37.47
2019-05-18T02:45:51.013Z,49.00
2019-05-18T02:48:21.301Z,40.20
2019-05-18T02:50:52.119Z,42.83
2019-05-18T02:53:22.692Z,33.03
2019-05-18T02:55:53.415Z,39.47
2019-05-18T02:58:24.685Z,35.20
2019-05-18T03:00:55.135Z,37.93
2019-05-18T03:03:25.682Z,69.87
2019-05-18T03:05:56.234Z,108.10
2019-05-18T03:08:26.634Z,104.17
2019-05-18T03:10:57.618Z,154.60
2019-05-18T03:13:27.946Z,115.40
2019-05-18T03:15:58.239Z,133.57
2019-05-18T03:18:29.179Z,101.80
2019-05-18T03:21:00.121Z,60.33
2019-05-18T03:23:30.652Z,116.77
2019-05-18T03:26:00.958Z,166.20
2019-05-18T03:28:31.321Z,109.87
2019-05-18T03:31:02.103Z,147.67
2019-05-18T03:33:32.790Z,124.93
2019-05-18T03:36:03.083Z,142.63
2019-05-18T03:38:33.813Z,167.97
2019-05-18T03:41:04.299Z,152.90
2019-05-18T03:43:34.644Z,160.10
2019-05-18T03:46:05.048Z,259.57
2019-05-18T03:48:35.695Z,178.27
2019-05-18T03:51:06.556Z,139.60
2019-05-18T03:53:36.998Z,152.20
2019-05-18T03:56:07.366Z,114.83
2019-05-18T03:58:38.054Z,127.57
2019-05-18T04:01:08.849Z,222.07
2019-05-18T04:03:39.390Z,202.20
2019-05-18T04:06:10.202Z,393.80
2019-05-18T04:08:41.017Z,257.93
2019-05-18T04:11:11.349Z,276.20
2019-05-18T04:13:41.737Z,290.03
2019-05-18T04:16:12.243Z,254.80
2019-05-18T04:18:42.554Z,210.57
2019-05-18T04:21:13.079Z,344.67
2019-05-18T04:23:43.598Z,306.47
2019-05-18T04:26:13.969Z,200.13
2019-05-18T04:28:44.667Z,165.73
2019-05-18T04:31:15.131Z,287.67
2019-05-18T04:33:45.644Z,150.23
2019-05-18T04:36:16.113Z,130.07
2019-05-18T04:38:46.496Z,168.87
2019-05-18T04:41:16.941Z,151.87
2019-05-18T04:43:47.571Z,243.43
2019-05-18T04:46:18.006Z,174.10
2019-05-18T04:48:48.332Z,107.00
2019-05-18T04:51:20.099Z,154.17
2019-05-18T04:53:50.624Z,115.07
2019-05-18T04:56:20.986Z,74.43
2019-05-18T04:58:51.771Z,95.03
2019-05-18T05:01:22.107Z,82.33
2019-05-18T05:03:52.554Z,69.70
2019-05-18T05:06:22.880Z,84.87
2019-05-18T05:08:53.189Z,87.53
2019-05-18T05:11:24.018Z,85.67
2019-05-18T05:13:54.561Z,93.63
2019-05-18T05:16:24.877Z,143.03
2019-05-18T05:18:55.393Z,78.60
2019-05-18T05:21:26.238Z,160.13
2019-05-18T05:23:56.633Z,173.00
2019-05-18T05:26:27.410Z,167.40
2019-05-18T05:28:58.143Z,153.40
2019-05-18T05:31:28.467Z,131.33
2019-05-18T05:33:58.840Z,117.80
2019-05-18T05:36:29.547Z,141.00
2019-05-18T05:39:00.861Z,232.70
2019-05-18T05:41:31.446Z,370.87
2019-05-18T05:44:01.853Z,285.00
2019-05-18T05:46:32.423Z,94.93
2019-05-18T05:49:03.264Z,182.00
2019-05-18T05:51:33.560Z,146.63
2019-05-18T05:54:04.196Z,169.60
2019-05-18T05:56:34.891Z,160.93
2019-05-18T05:59:05.264Z,135.63
2019-05-18T06:01:36.774Z,144.33
2019-05-18T06:04:07.404Z,69.63
2019-05-18T06:06:37.964Z,67.17
2019-05-18T06:09:09.139Z,66.97
2019-05-18T06:11:39.497Z,92.03
2019-05-18T06:14:10.043Z,129.90
2019-05-18T06:16:40.775Z,156.30
2019-05-18T06:19:11.194Z,145.87
2019-05-18T06:21:41.561Z,45.83
2019-05-18T06:24:12.252Z,41.27
2019-05-18T06:26:42.668Z,41.90
2019-05-18T06:29:13.002Z,44.00
2019-05-18T06:31:43.419Z,45.43
2019-05-18T06:34:13.811Z,41.63
2019-05-18T06:36:45.060Z,47.67
2019-05-18T06:39:15.735Z,39.37
2019-05-18T06:41:46.307Z,42.43
2019-05-18T06:44:16.752Z,42.83
2019-05-18T06:46:47.426Z,40.87
2019-05-18T06:49:18.207Z,41.10
2019-05-18T06:51:48.627Z,49.07
2019-05-18T06:54:19.268Z,51.37
2019-05-18T06:56:51.173Z,42.87
2019-05-18T06:59:21.803Z,41.97
2019-05-18T07:01:52.288Z,46.00
2019-05-18T07:04:22.729Z,46.30
2019-05-18T07:06:53.035Z,50.30
2019-05-18T07:09:23.741Z,48.87
2019-05-18T07:11:56.112Z,51.60
2019-05-18T07:14:27.392Z,46.77
2019-05-18T07:16:58.058Z,46.83
2019-05-18T07:19:28.480Z,46.47
2019-05-18T07:21:58.885Z,50.40
2019-05-18T07:24:29.476Z,48.73
2019-05-18T07:26:59.840Z,43.17
2019-05-18T07:29:30.314Z,50.77
2019-05-18T07:32:01.065Z,36.80
2019-05-18T07:34:31.410Z,43.43
2019-05-18T07:37:01.703Z,34.00
2019-05-18T07:39:35.846Z,31.73
2019-05-18T07:42:04.557Z,38.77
2019-05-18T07:44:35.150Z,42.47
2019-05-18T07:47:05.458Z,42.13
2019-05-18T07:49:35.792Z,47.10
2019-05-18T07:52:06.632Z,47.23
2019-05-18T07:54:37.246Z,41.60
2019-05-18T07:57:07.565Z,43.13
2019-05-18T07:59:38.334Z,56.63
2019-05-18T08:02:08.794Z,54.87
2019-05-18T08:04:39.842Z,66.07
2019-05-18T08:07:10.790Z,47.00
2019-05-18T08:09:41.409Z,50.07
2019-05-18T08:12:11.822Z,48.87
2019-05-18T08:14:42.362Z,50.90
2019-05-18T08:17:12.746Z,52.70
2019-05-18T08:19:43.497Z,46.23
2019-05-18T08:22:14.165Z,46.63
2019-05-18T08:24:44.525Z,44.47
2019-05-18T08:27:15.239Z,47.83
2019-05-18T08:29:45.684Z,40.93
2019-05-18T08:32:16.964Z,44.00
2019-05-18T08:34:47.389Z,40.37
2019-05-18T08:37:17.992Z,45.73
2019-05-18T08:39:49.297Z,49.47
2019-05-18T08:42:19.849Z,40.87
2019-05-18T08:44:50.342Z,61.57
2019-05-18T08:47:21.140Z,37.63
2019-05-18T08:49:51.945Z,41.17
2019-05-18T08:52:23.427Z,48.10
2019-05-18T08:54:53.897Z,64.20
2019-05-18T08:57:24.682Z,47.03
2019-05-18T08:59:54.977Z,57.87
2019-05-18T09:02:25.396Z,44.87
2019-05-18T09:04:55.798Z,43.37
2019-05-18T09:07:26.262Z,61.83
2019-05-18T09:09:56.612Z,48.63
2019-05-18T09:12:27.048Z,50.83
2019-05-18T09:14:57.698Z,68.77
2019-05-18T09:17:28.361Z,64.57
2019-05-18T09:19:58.661Z,48.53
2019-05-18T09:22:29.032Z,66.47
2019-05-18T09:24:59.827Z,64.33
2019-05-18T09:27:30.296Z,112.30
2019-05-18T09:30:00.686Z,103.63
2019-05-18T09:32:31.436Z,72.87
2019-05-18T09:35:01.843Z,83.47
2019-05-18T09:37:32.700Z,65.07
2019-05-18T09:40:03.519Z,47.03
2019-05-18T09:42:34.153Z,40.70
2019-05-18T09:45:04.999Z,93.73
2019-05-18T09:47:35.912Z,108.20
2019-05-18T09:50:06.709Z,129.93
2019-05-18T09:52:46.203Z,125.87
2019-05-18T09:55:10.861Z,119.30
2019-05-18T09:57:41.256Z,58.70
2019-05-18T10:00:12.505Z,126.07
2019-05-18T10:02:43.012Z,113.30
2019-05-18T10:05:13.819Z,148.53
2019-05-18T10:07:44.676Z,188.70
2019-05-18T10:10:15.709Z,124.47
2019-05-18T10:12:46.249Z,111.77
2019-05-18T10:15:16.943Z,104.00
2019-05-18T10:17:47.555Z,154.57
2019-05-18T10:20:17.949Z,91.90
2019-05-18T10:22:59.224Z,154.90
2019-05-18T10:25:20.614Z,167.03
2019-05-18T10:27:51.389Z,179.63
2019-05-18T10:30:22.117Z,87.70
2019-05-18T10:32:52.444Z,84.70
2019-05-18T10:35:22.969Z,94.15
2019-05-18T10:37:53.805Z,62.85
2019-05-18T10:40:24.107Z,63.00
2019-05-18T10:42:54.577Z,72.87
2019-05-18T10:45:25.446Z,77.78
2019-05-18T10:47:55.957Z,58.70
2019-05-18T10:50:26.322Z,66.17
2019-05-18T10:52:57.250Z,31.60
2019-05-18T10:55:27.779Z,38.08
2019-05-18T10:57:58.207Z,30.97
2019-05-18T11:00:29.059Z,25.52
2019-05-18T11:02:59.553Z,27.58
2019-05-18T11:05:29.904Z,28.80
2019-05-18T11:08:00.596Z,28.90
2019-05-18T11:10:31.410Z,28.67
2019-05-18T11:13:01.823Z,27.30
2019-05-18T11:15:32.382Z,16.87
2019-05-18T11:18:03.169Z,17.07
2019-05-18T11:20:33.521Z,13.72
2019-05-18T11:23:03.928Z,17.10
2019-05-18T11:25:34.505Z,12.47
2019-05-18T11:28:04.905Z,13.50
2019-05-18T11:30:35.394Z,9.48
2019-05-18T11:33:05.725Z,77.12
2019-05-18T11:35:36.325Z,161.57
2019-05-18T11:38:06.847Z,81.78
2019-05-18T11:40:37.200Z,71.82
2019-05-18T11:43:07.601Z,37.53
2019-05-18T11:45:38.319Z,47.90
2019-05-18T11:48:08.755Z,52.08
2019-05-18T11:50:39.097Z,53.92
2019-05-18T11:53:09.633Z,61.83
2019-05-18T11:55:40.127Z,71.87
2019-05-18T11:58:10.557Z,48.25
2019-05-18T12:00:40.854Z,39.78
2019-05-18T12:03:11.180Z,68.90
2019-05-18T12:05:42.001Z,70.37
2019-05-18T12:08:12.403Z,64.35
2019-05-18T12:10:42.744Z,64.80
2019-05-18T12:13:13.624Z,69.80
2019-05-18T12:15:44.268Z,67.67
2019-05-18T12:18:14.795Z,68.22
2019-05-18T12:20:45.581Z,65.78
2019-05-18T12:23:16.112Z,63.70
2019-05-18T12:25:46.422Z,64.92
2019-05-18T12:28:17.968Z,30.12
2019-05-18T12:30:48.260Z,38.85
2019-05-18T12:33:19.109Z,68.60
2019-05-18T12:35:49.642Z,61.00
2019-05-18T12:38:19.953Z,42.15
2019-05-18T12:40:50.596Z,43.25
2019-05-18T12:43:21.140Z,52.20
2019-05-18T12:45:51.490Z,41.53
2019-05-18T12:48:23.280Z,41.68
2019-05-18T12:50:54.027Z,49.58
2019-05-18T12:53:24.420Z,47.55
2019-05-18T12:55:54.962Z,44.18
2019-05-18T12:58:25.706Z,51.02
2019-05-18T13:00:56.191Z,30.27
2019-05-18T13:03:26.597Z,30.88
2019-05-18T13:05:56.953Z,42.27
2019-05-18T13:08:27.707Z,22.20
2019-05-18T13:10:58.454Z,29.42
2019-05-18T13:13:28.885Z,41.05
2019-05-18T13:15:59.445Z,40.95
2019-05-18T13:18:30.116Z,40.48
2019-05-18T13:21:00.588Z,24.00
2019-05-18T13:23:30.968Z,15.03
2019-05-18T13:26:01.386Z,13.03
2019-05-18T13:28:31.721Z,17.23
2019-05-18T13:31:02.022Z,18.00
2019-05-18T13:33:32.475Z,27.42
2019-05-18T13:36:02.937Z,32.05
2019-05-18T13:38:33.671Z,59.98
2019-05-18T13:41:04.151Z,27.82
2019-05-18T13:43:34.518Z,22.17
2019-05-18T13:46:05.290Z,18.73
2019-05-18T13:48:35.612Z,12.78
2019-05-18T13:51:05.973Z,27.48
2019-05-18T13:53:36.583Z,15.58
2019-05-18T13:56:06.914Z,32.17
2019-05-18T13:58:37.245Z,17.20
2019-05-18T14:01:07.685Z,26.93
2019-05-18T14:03:38.293Z,14.63
2019-05-18T14:06:08.823Z,15.78
2019-05-18T14:08:39.173Z,30.30
2019-05-18T14:11:09.474Z,46.98
2019-05-18T14:13:40.205Z,38.05
2019-05-18T14:16:10.721Z,52.27
2019-05-18T14:18:41.094Z,35.90
2019-05-18T14:21:11.933Z,40.78
2019-05-18T14:23:42.678Z,18.35
2019-05-18T14:26:13.052Z,19.87
2019-05-18T14:28:43.458Z,15.43
2019-05-18T14:31:14.294Z,22.73
2019-05-18T14:33:44.735Z,35.45
2019-05-18T14:36:15.358Z,36.68
2019-05-18T14:38:45.783Z,46.08
2019-05-18T14:41:16.581Z,42.83
2019-05-18T14:43:47.156Z,39.70
2019-05-18T14:46:17.527Z,39.33
2019-05-18T14:48:48.211Z,35.23
2019-05-18T14:51:19.090Z,29.10
2019-05-18T14:53:49.424Z,39.92
2019-05-18T14:56:19.839Z,47.40
2019-05-18T14:58:50.268Z,21.75
2019-05-18T15:01:20.568Z,37.88
2019-05-18T15:03:51.016Z,30.32
2019-05-18T15:06:21.699Z,22.77
2019-05-18T15:08:52.028Z,21.57
2019-05-18T15:11:22.362Z,15.90
2019-05-18T15:13:53.136Z,15.65
2019-05-18T15:16:23.623Z,25.55
2019-05-18T15:18:54.111Z,20.43
2019-05-18T15:21:24.780Z,20.95
2019-05-18T15:23:55.253Z,23.35
2019-05-18T15:26:25.588Z,12.55
2019-05-18T15:28:56.024Z,13.18
2019-05-18T15:31:26.665Z,13.60
2019-05-18T15:33:57.140Z,14.13
2019-05-18T15:36:27.659Z,15.72
2019-05-18T15:38:58.403Z,37.48
2019-05-18T15:41:28.699Z,16.85
2019-05-18T15:43:59.319Z,24.70
2019-05-18T15:46:29.664Z,27.40
2019-05-18T15:49:00.517Z,26.62
2019-05-18T15:51:31.403Z,31.87
2019-05-18T15:54:01.777Z,31.80
2019-05-18T15:56:32.412Z,40.50
2019-05-18T15:59:03.217Z,41.42
2019-05-18T16:01:33.520Z,37.90
2019-05-18T16:04:06.567Z,36.90
2019-05-18T16:06:36.636Z,35.00
2019-05-18T16:09:08.034Z,37.73
2019-05-18T16:11:38.337Z,34.58
2019-05-18T16:14:09.276Z,37.28
2019-05-18T16:16:40.817Z,40.10
2019-05-18T16:19:11.426Z,34.00
2019-05-18T16:21:41.784Z,32.28
2019-05-18T16:24:12.465Z,29.25
2019-05-18T16:26:43.007Z,37.33
2019-05-18T16:29:13.331Z,29.48
2019-05-18T16:31:43.742Z,27.00
2019-05-18T16:34:14.452Z,27.05
2019-05-18T16:36:45.013Z,28.98
2019-05-18T16:39:15.341Z,29.12
2019-05-18T16:41:46.240Z,28.00
2019-05-18T16:44:16.831Z,30.52
2019-05-18T16:46:47.293Z,29.90
2019-05-18T16:49:17.769Z,31.68
2019-05-18T16:51:48.161Z,31.07
2019-05-18T16:54:18.935Z,34.73
2019-05-18T16:56:49.260Z,26.33
2019-05-18T16:59:19.605Z,32.70
2019-05-18T17:01:50.411Z,32.20
2019-05-18T17:04:21.086Z,35.65
2019-05-18T17:06:51.451Z,39.42
2019-05-18T17:09:22.206Z,37.60
2019-05-18T17:11:53.105Z,40.50
2019-05-18T17:14:23.479Z,38.73
2019-05-18T17:16:53.861Z,35.52
2019-05-18T17:19:24.237Z,36.00
2019-05-18T17:21:54.752Z,39.55
2019-05-18T17:24:25.163Z,32.63
2019-05-18T17:26:55.560Z,22.70
2019-05-18T17:29:26.337Z,18.23
2019-05-18T17:31:57.040Z,27.42
2019-05-18T17:34:27.389Z,28.80
2019-05-18T17:36:57.855Z,38.02
2019-05-18T17:39:28.668Z,28.52
2019-05-18T17:41:58.970Z,34.00
2019-05-18T17:44:29.441Z,40.12
2019-05-18T17:47:00.083Z,32.35
2019-05-18T17:49:30.462Z,43.48
2019-05-18T17:52:01.136Z,32.60
2019-05-18T17:54:31.496Z,28.12
2019-05-18T17:57:08.536Z,27.13
2019-05-18T17:59:34.153Z,34.67
2019-05-18T18:02:04.681Z,41.17
2019-05-18T18:04:36.294Z,43.33
2019-05-18T18:07:06.982Z,39.93
2019-05-18T18:09:37.362Z,39.37
2019-05-18T18:12:07.826Z,26.73
2019-05-18T18:14:38.665Z,26.80
2019-05-18T18:17:09.354Z,52.70
2019-05-18T18:19:40.745Z,46.87
2019-05-18T18:22:11.717Z,29.90
2019-05-18T18:24:42.025Z,29.13
2019-05-18T18:27:24.927Z,31.83
2019-05-18T18:29:45.310Z,21.97
2019-05-18T18:32:15.767Z,23.30
2019-05-18T18:34:46.400Z,22.10
2019-05-18T18:37:16.875Z,20.77
2019-05-18T18:39:47.509Z,21.57
2019-05-18T18:42:19.538Z,18.60
2019-05-18T18:44:50.075Z,19.73
2019-05-18T18:47:20.374Z,16.90
2019-05-18T18:49:51.070Z,12.97
2019-05-18T18:52:21.455Z,14.80
2019-05-18T18:54:51.861Z,14.00
2019-05-18T18:57:22.179Z,15.93
2019-05-18T18:59:52.595Z,19.30
2019-05-18T19:02:24.506Z,15.60
2019-05-18T19:04:55.072Z,17.33
2019-05-18T19:07:25.415Z,29.60
2019-05-18T19:09:56.116Z,29.57
2019-05-18T19:12:26.796Z,36.57
2019-05-18T19:14:57.147Z,38.80
2019-05-18T19:17:27.714Z,36.80
2019-05-18T19:19:58.461Z,35.60
2019-05-18T19:22:28.758Z,34.47
2019-05-18T19:24:59.178Z,35.30
2019-05-18T19:27:29.568Z,33.23
2019-05-18T19:29:59.917Z,29.87
2019-05-18T19:32:30.240Z,35.80
2019-05-18T19:35:00.979Z,27.47
2019-05-18T19:37:31.432Z,34.13
2019-05-18T19:40:01.846Z,35.07
2019-05-18T19:42:32.855Z,28.93
2019-05-18T19:45:03.591Z,41.13
2019-05-18T19:47:33.866Z,38.17
2019-05-18T19:50:04.961Z,42.63
2019-05-18T19:52:35.472Z,39.23
2019-05-18T19:55:05.931Z,38.80
2019-05-18T19:57:36.687Z,37.93
2019-05-18T20:00:07.050Z,41.83
2019-05-18T20:02:39.158Z,39.57
2019-05-18T20:05:10.045Z,48.40
2019-05-18T20:07:40.383Z,39.70
2019-05-18T20:10:12.498Z,49.17
2019-05-18T20:12:43.267Z,44.57
2019-05-18T20:15:14.797Z,47.10
2019-05-18T20:17:45.510Z,47.47
2019-05-18T20:20:16.495Z,53.63
2019-05-18T20:22:46.826Z,57.83
2019-05-18T20:25:17.264Z,62.67
2019-05-18T20:27:47.804Z,73.90
2019-05-18T20:30:18.341Z,54.37
2019-05-18T20:32:49.027Z,37.57
2019-05-18T20:35:19.395Z,43.47
2019-05-18T20:37:49.878Z,42.10
2019-05-18T20:40:20.740Z,41.50
2019-05-18T20:42:51.208Z,43.93
2019-05-18T20:45:21.789Z,34.23
2019-05-18T20:47:52.578Z,32.33
2019-05-18T20:50:22.949Z,32.67
2019-05-18T20:52:53.337Z,35.60
2019-05-18T20:55:24.166Z,44.00
2019-05-18T20:57:54.540Z,50.20
2019-05-18T21:00:24.877Z,29.63
2019-05-18T21:02:55.586Z,78.50
2019-05-18T21:05:26.428Z,80.63
2019-05-18T21:07:57.132Z,34.77
2019-05-18T21:10:27.460Z,27.03
2019-05-18T21:12:57.876Z,39.90
2019-05-18T21:15:28.776Z,26.73
2019-05-18T21:17:59.089Z,38.63
2019-05-18T21:20:29.434Z,37.07
2019-05-18T21:23:00.245Z,40.77
2019-05-18T21:25:30.604Z,46.60
2019-05-18T21:28:00.933Z,32.43
2019-05-18T21:30:31.746Z,35.50
2019-05-18T21:33:02.318Z,33.37
2019-05-18T21:35:32.730Z,41.13
2019-05-18T21:38:03.516Z,44.20
2019-05-18T21:40:34.251Z,26.97
2019-05-18T21:43:04.577Z,29.33
2019-05-18T21:45:35.125Z,25.93
2019-05-18T21:48:05.725Z,31.30
2019-05-18T21:50:36.099Z,24.90
2019-05-18T21:53:06.444Z,30.17
2019-05-18T21:55:36.948Z,23.73
2019-05-18T21:58:07.284Z,16.93
2019-05-18T22:00:37.660Z,29.47
2019-05-18T22:03:10.082Z,29.83
2019-05-18T22:05:40.775Z,26.30
2019-05-18T22:08:11.375Z,20.93
2019-05-18T22:10:41.721Z,17.63
2019-05-18T22:13:12.132Z,24.03
2019-05-18T22:15:43.009Z,23.23
2019-05-18T22:18:24.115Z,26.03
2019-05-18T22:20:45.431Z,18.80
2019-05-18T22:23:15.873Z,18.23
2019-05-18T22:25:46.236Z,21.50
2019-05-18T22:28:16.544Z,22.43
2019-05-18T22:30:47.420Z,26.93
2019-05-18T22:33:18.149Z,26.17
2019-05-18T22:35:48.541Z,35.33
2019-05-18T22:38:19.403Z,25.50
2019-05-18T22:40:49.776Z,23.83
2019-05-18T22:43:20.505Z,25.57
2019-05-18T22:45:51.040Z,27.33
2019-05-18T22:48:21.338Z,29.70
2019-05-18T22:50:52.073Z,28.07
2019-05-18T22:53:22.513Z,31.07
2019-05-18T22:55:52.942Z,33.20
2019-05-18T22:58:23.610Z,35.77
2019-05-18T23:00:54.350Z,36.97
2019-05-18T23:03:24.714Z,37.67
2019-05-18T23:05:55.212Z,40.40
2019-05-18T23:08:25.882Z,41.87
2019-05-18T23:10:56.187Z,43.57
2019-05-18T23:13:28.299Z,47.83
2019-05-18T23:15:58.646Z,43.30
2019-05-18T23:18:29.088Z,55.03
2019-05-18T23:20:59.543Z,37.23
2019-05-18T23:23:29.913Z,37.73
2019-05-18T23:26:00.400Z,34.20
2019-05-18T23:28:31.098Z,35.63
2019-05-18T23:31:01.498Z,34.00
2019-05-18T23:33:31.858Z,25.57
2019-05-18T23:36:02.485Z,22.80
2019-05-18T23:38:32.865Z,29.93
2019-05-18T23:41:03.231Z,23.83
2019-05-18T23:43:33.935Z,32.27
2019-05-18T23:46:04.331Z,21.27
2019-05-18T23:48:34.642Z,25.80
2019-05-18T23:51:05.465Z,28.40
2019-05-18T23:53:35.884Z,44.67
2019-05-18T23:56:07.276Z,38.83
2019-05-18T23:58:37.962Z,29.60
